FW0917 Westminster MA US current weather conditions

sailwx.info

Wind from 226 at 2 knots gusting 6

Air temperature 2.2° C
Dewpoint -5.9° C

Last reported at 2019-Dec-05 20:07 UTC.
Time now 2019-Dec-05 20:38 UTC

Location: N 42°33' W 071°53'.
View on Google Maps.

See reports from other nearby stations

  
Tides and Currents Weather Stations Pressure Air Temp Water Temp Dewpoint Dewpoint Depression Visibility Wind Speed Wind Dir Waves Ship Positions
date/time (UTC)wind fromknots sea level pressurealtimeterstation pressurevisibilityair tempwater tempwave heightnotes
2019-Dec-05 20:07 226 2 gusting 6 2.2
2019-Dec-05 20:02 268 1 gusting 4 2.2
2019-Dec-05 19:57 262 0 gusting 8 2.2
2019-Dec-05 19:52 214 1 gusting 6 2.2
2019-Dec-05 19:47 243 1 gusting 8 2.2
2019-Dec-05 19:42 236 0 gusting 2 2.2
2019-Dec-05 19:37 254 1 gusting 10 2.2
2019-Dec-05 19:32 270 1 gusting 14 2.8
2019-Dec-05 19:27 187 2 gusting 13 2.8
2019-Dec-05 19:22 266 5 gusting 13 2.8
2019-Dec-05 19:17 270 4 gusting 13 3.3
2019-Dec-05 19:12 259 0 gusting 5 3.3
2019-Dec-05 19:07 260 1 gusting 6 3.3
2019-Dec-05 19:02 221 5 gusting 18 3.9
2019-Dec-05 18:57 279 1 gusting 7 4.4
2019-Dec-05 18:52 215 3 gusting 13 5.0
2019-Dec-05 18:47 192 0 gusting 2 5.0
2019-Dec-05 18:42 271 0 gusting 2 5.0
2019-Dec-05 18:37 288 1 gusting 4 5.6
2019-Dec-05 18:32 285 2 gusting 5 5.6
2019-Dec-05 18:27 284 5.0
2019-Dec-05 18:22 313 2 gusting 4 5.0
2019-Dec-05 18:17 294 1 gusting 6 4.4
2019-Dec-05 18:12 258 0 gusting 12 4.4
2019-Dec-05 18:07 222 0 gusting 6 4.4
2019-Dec-05 18:02 187 1 gusting 8 4.4
2019-Dec-05 17:57 216 2 gusting 10 4.4
2019-Dec-05 17:52 206 2 gusting 20 4.4
2019-Dec-05 17:47 282 4 gusting 25 5.0
2019-Dec-05 17:42 218 2 gusting 13 5.0
2019-Dec-05 17:37 235 1 gusting 15 4.4
2019-Dec-05 17:32 197 5 gusting 13 4.4
2019-Dec-05 17:27 257 3 gusting 12 4.4
2019-Dec-05 17:22 240 1 gusting 6 4.4
2019-Dec-05 17:17 276 2 gusting 6 4.4
2019-Dec-05 17:12 220 1 gusting 6 4.4
2019-Dec-05 17:07 215 5 gusting 13 5.0
2019-Dec-05 17:02 223 2 gusting 17 4.4
2019-Dec-05 16:57 193 2 gusting 10 5.0
2019-Dec-05 16:52 248 2 gusting 14 5.0
2019-Dec-05 16:47 250 5 gusting 20 5.0
2019-Dec-05 16:42 287 2 gusting 6 5.0
2019-Dec-05 16:37 284 1 gusting 5 4.4
2019-Dec-05 16:32 281 1 gusting 4 4.4
2019-Dec-05 16:27 292 1 gusting 10 4.4
2019-Dec-05 16:22 242 1 gusting 5 4.4
2019-Dec-05 16:17 263 1 gusting 10 4.4
2019-Dec-05 16:12 196 3 gusting 13 4.4
2019-Dec-05 16:07 274 1 gusting 14 4.4
2019-Dec-05 16:02 283 1 gusting 13 3.9
2019-Dec-05 15:57 231 2 gusting 18 3.9
2019-Dec-05 15:52 253 2 gusting 8 3.9
2019-Dec-05 15:47 257 3 gusting 14 3.9
2019-Dec-05 15:42 200 5 gusting 15 3.9
2019-Dec-05 15:37 263 2 gusting 4 3.9
2019-Dec-05 15:32 203 4 gusting 15 3.9
2019-Dec-05 15:27 258 1 gusting 6 3.9
2019-Dec-05 15:22 277 2 gusting 17 3.3
2019-Dec-05 15:17 266 1 gusting 4 3.3
2019-Dec-05 15:12 218 2 gusting 11 3.3
2019-Dec-05 15:07 273 1 gusting 6 3.3
2019-Dec-05 15:02 201 5 gusting 11 3.3
2019-Dec-05 14:57 240 1 gusting 6 2.8
2019-Dec-05 14:52 261 1 gusting 10 2.8
2019-Dec-05 14:47 262 0 gusting 10 2.8
2019-Dec-05 14:42 201 1 gusting 11 2.8
2019-Dec-05 14:37 201 2.2
2019-Dec-05 14:32 199 6 gusting 13 2.2
2019-Dec-05 14:27 187 1 gusting 5 2.2
2019-Dec-05 14:22 206 1 gusting 6 1.7
2019-Dec-05 14:17 228 0 gusting 5 1.7
2019-Dec-05 14:12 205 1 gusting 4 1.7
2019-Dec-05 14:07 199 2 gusting 6 1.1
2019-Dec-05 14:02 200 2 gusting 7 1.1
2019-Dec-05 13:57 212 1 gusting 6 1.1
2019-Dec-05 13:52 193 1 gusting 8 0.6
2019-Dec-05 13:47 191 0 gusting 2 0.6
2019-Dec-05 13:42 197 1 gusting 4 0.6
2019-Dec-05 13:37 202 3 gusting 5 -0.0
2019-Dec-05 13:32 175 1 gusting 2 -0.0
2019-Dec-05 13:27 199 0 gusting 6 -0.0
2019-Dec-05 13:22 188 -0.6
2019-Dec-05 13:17 177 0 gusting 2 -0.6
2019-Dec-05 13:12 196 2 gusting 6 -0.6
2019-Dec-05 13:07 187 2 gusting 6 -1.1
2019-Dec-05 13:02 190 1 gusting 4 -1.1
2019-Dec-05 12:57 199 1 gusting 6 -1.1
2019-Dec-05 12:52 207 2 gusting 6 -1.7
2019-Dec-05 12:47 186 2 gusting 5 -1.7
2019-Dec-05 12:42 196 1 gusting 2 -1.7
2019-Dec-05 12:37 187 1 gusting 5 -1.7
2019-Dec-05 12:32 212 -1.7
2019-Dec-05 12:27 192 0 gusting 4 -1.7
2019-Dec-05 12:22 199 1 gusting 5 -1.7
2019-Dec-05 12:17 188 0 gusting 4 -1.7
2019-Dec-05 12:12 211 2 gusting 5 -1.7
2019-Dec-05 12:07 196 4 gusting 7 -2.2
2019-Dec-05 12:02 193 2 gusting 8 -2.2
2019-Dec-05 11:57 207 3 gusting 8 -2.2
2019-Dec-05 11:52 195 3 gusting 10 -2.2
2019-Dec-05 11:47 219 2 gusting 6 -2.8
2019-Dec-05 11:42 198 2 gusting 6 -2.8
2019-Dec-05 11:37 194 0 gusting 2 -2.8
2019-Dec-05 11:32 192 -2.8
2019-Dec-05 11:27 193 0 gusting 1 -2.2
2019-Dec-05 11:22 188 -2.2
2019-Dec-05 11:17 187 -2.2
2019-Dec-05 11:12 187 -2.2
2019-Dec-05 11:07 187 -2.2
2019-Dec-05 11:02 187 0 gusting 4 -1.7
2019-Dec-05 10:57 184 1 gusting 5 -1.7
2019-Dec-05 10:52 187 2 gusting 8 -1.7
2019-Dec-05 10:47 194 2 gusting 6 -1.7
2019-Dec-05 10:42 191 2 gusting 7 -1.7
2019-Dec-05 10:37 203 2 gusting 6 -1.7
2019-Dec-05 10:32 205 1 gusting 6 -1.7
2019-Dec-05 10:27 196 2 gusting 6 -1.7
2019-Dec-05 10:22 181 1 gusting 4 -1.7
2019-Dec-05 10:17 204 1 gusting 5 -1.7
2019-Dec-05 10:12 196 1 gusting 4 -1.7
2019-Dec-05 10:07 213 2 gusting 5 -1.7
2019-Dec-05 10:02 196 2 gusting 4 -1.7
2019-Dec-05 09:57 197 3 gusting 6 -1.7
2019-Dec-05 09:52 204 1 gusting 5 -1.7
2019-Dec-05 09:47 201 1 gusting 6 -1.7
2019-Dec-05 09:42 193 2 gusting 7 -1.7
2019-Dec-05 09:37 203 4 gusting 8 -1.7
2019-Dec-05 09:32 206 4 gusting 6 -1.7
2019-Dec-05 09:27 195 4 gusting 7 -1.7
2019-Dec-05 09:22 198 2 gusting 6 -1.7
2019-Dec-05 09:17 192 1 gusting 5 -1.7
2019-Dec-05 09:12 204 2 gusting 6 -1.7
2019-Dec-05 09:07 199 3 gusting 10 -1.7
2019-Dec-05 09:02 205 2 gusting 4 -1.7
2019-Dec-05 08:57 211 4 gusting 10 -1.7
2019-Dec-05 08:52 197 2 gusting 6 -1.7
2019-Dec-05 08:47 207 2 gusting 6 -1.7
2019-Dec-05 08:42 216 2 gusting 5 -1.7
2019-Dec-05 08:37 205 1 gusting 5 -1.7
2019-Dec-05 08:32 210 2 gusting 4 -1.7
2019-Dec-05 08:27 204 2 gusting 6 -1.7
2019-Dec-05 08:22 196 2 gusting 6 -1.7
2019-Dec-05 08:17 197 2 gusting 6 -1.7
2019-Dec-05 08:12 210 1 gusting 6 -1.7
2019-Dec-05 08:07 183 0 gusting 2 -1.7
2019-Dec-05 08:02 200 2 gusting 6 -1.7
2019-Dec-05 07:57 194 1 gusting 8 -1.7
2019-Dec-05 07:52 207 3 gusting 7 -1.7
2019-Dec-05 07:47 202 4 gusting 7 -1.7
2019-Dec-05 07:42 210 3 gusting 7 -1.7
2019-Dec-05 07:37 235 0 gusting 6 -1.7
2019-Dec-05 07:32 181 1 gusting 5 -1.7
2019-Dec-05 07:27 196 4 gusting 7 -1.7
2019-Dec-05 07:22 202 2 gusting 7 -1.7
2019-Dec-05 07:17 201 2 gusting 6 -1.7
2019-Dec-05 07:12 190 2 gusting 6 -1.7
2019-Dec-05 07:07 189 1 gusting 10 -1.7
2019-Dec-05 07:02 209 2 gusting 6 -1.7
2019-Dec-05 06:57 206 2 gusting 6 -1.7
2019-Dec-05 06:52 203 2 gusting 6 -1.7
2019-Dec-05 06:47 197 5 gusting 7 -1.7
2019-Dec-05 06:42 204 1 gusting 5 -1.7
2019-Dec-05 06:37 198 2 gusting 6 -1.7
2019-Dec-05 06:32 207 2 gusting 6 -1.7
2019-Dec-05 06:27 200 2 gusting 6 -1.7
2019-Dec-05 06:22 196 0 gusting 5 -1.7
2019-Dec-05 06:17 194 3 gusting 8 -1.7
2019-Dec-05 06:12 204 1 gusting 4 -1.7
2019-Dec-05 06:07 198 2 gusting 6 -1.7
2019-Dec-05 06:02 200 4 gusting 6 -1.7
2019-Dec-05 05:57 201 2 gusting 6 -1.7
2019-Dec-05 05:52 201 2 gusting 6 -1.7
2019-Dec-05 05:47 204 3 gusting 8 -1.7
2019-Dec-05 05:42 205 4 gusting 10 -1.1
2019-Dec-05 05:37 207 5 gusting 10 -1.1
2019-Dec-05 05:32 180 3 gusting 8 -1.1
2019-Dec-05 05:27 207 4 gusting 8 -1.1
2019-Dec-05 05:22 199 4 gusting 6 -1.1
2019-Dec-05 05:17 215 4 gusting 12 -1.1
2019-Dec-05 05:12 197 5 gusting 10 -1.1
2019-Dec-05 05:07 202 2 gusting 10 -1.1
2019-Dec-05 05:02 192 4 gusting 11 -1.1
2019-Dec-05 04:57 199 5 gusting 10 -1.1
2019-Dec-05 04:52 217 4 gusting 11 -1.1
2019-Dec-05 04:47 203 3 gusting 10 -1.1
2019-Dec-05 04:42 202 2 gusting 6 -1.1
2019-Dec-05 04:37 206 2 gusting 5 -1.1
2019-Dec-05 04:32 196 2 gusting 8 -0.6
2019-Dec-05 04:27 203 5 gusting 10 -0.6
2019-Dec-05 04:22 199 2 gusting 6 -0.6
2019-Dec-05 04:17 202 2 gusting 8 -0.6
2019-Dec-05 04:12 201 1 gusting 5 -0.6
2019-Dec-05 04:07 200 3 gusting 10 -0.6
2019-Dec-05 04:02 215 2 gusting 6 -0.6
2019-Dec-05 03:57 197 4 gusting 8 -0.6
2019-Dec-05 03:52 205 2 gusting 10 -0.6
2019-Dec-05 03:47 176 1 gusting 6 -0.6
2019-Dec-05 03:42 197 2 gusting 6 -0.6
2019-Dec-05 03:37 203 2 gusting 7 -0.6
2019-Dec-05 03:32 188 0 gusting 2 -0.6
2019-Dec-05 03:27 203 1 gusting 5 -0.6
2019-Dec-05 03:22 197 1 gusting 6 -0.6
2019-Dec-05 03:17 191 1 gusting 4 -0.6
2019-Dec-05 03:12 198 1 gusting 5 -0.6
2019-Dec-05 03:07 208 2 gusting 6 -0.6
2019-Dec-05 03:02 206 0 gusting 2 -0.6
2019-Dec-05 02:57 191 1 gusting 5 -0.6
2019-Dec-05 02:52 192 0 gusting 5 -0.6
2019-Dec-05 02:47 195 1 gusting 4 -0.6
2019-Dec-05 02:42 205 2 gusting 5 -0.6
2019-Dec-05 02:37 211 0 gusting 2 -0.0
2019-Dec-05 02:32 198 1 gusting 2 -0.0
2019-Dec-05 02:27 180 -0.0
2019-Dec-05 02:22 201 0 gusting 2 -0.0
2019-Dec-05 02:17 205 2 gusting 7 -0.0
2019-Dec-05 02:12 209 2 gusting 6 -0.0
2019-Dec-05 02:07 202 1 gusting 5 -0.0
2019-Dec-05 02:02 189 2 gusting 7 -0.0
2019-Dec-05 01:57 210 2 gusting 6 -0.0
2019-Dec-05 01:52 202 3 gusting 5 -0.0
2019-Dec-05 01:47 182 1 gusting 5 -0.0
2019-Dec-05 01:42 220 2 gusting 6 -0.0
2019-Dec-05 01:37 186 3 gusting 6 -0.0
2019-Dec-05 01:32 207 2 gusting 8 -0.0
2019-Dec-05 01:27 198 2 gusting 7 -0.0
2019-Dec-05 01:22 204 2 gusting 6 -0.0
2019-Dec-05 01:17 195 5 gusting 8 -0.0
2019-Dec-05 01:12 198 2 gusting 6 -0.0
2019-Dec-05 01:07 200 3 gusting 6 -0.0
2019-Dec-05 01:02 195 2 gusting 6 -0.0
2019-Dec-05 00:57 214 2 gusting 8 -0.0
2019-Dec-05 00:52 198 3 gusting 6 -0.0
2019-Dec-05 00:47 197 2 gusting 10 -0.0
2019-Dec-05 00:42 197 1 gusting 11 -0.0
2019-Dec-05 00:37 202 2 gusting 7 -0.0
2019-Dec-05 00:32 206 0 gusting 5 -0.0
2019-Dec-05 00:27 218 1 gusting 5 -0.0
2019-Dec-05 00:22 207 1 gusting 10 -0.0
2019-Dec-05 00:17 199 4 gusting 10 0.6
2019-Dec-05 00:12 209 5 gusting 7 0.6
2019-Dec-05 00:07 187 3 gusting 6 0.6
2019-Dec-05 00:02 190 3 gusting 6 -0.0
2019-Dec-04 23:57 194 2 gusting 7 -0.0
2019-Dec-04 23:52 197 2 gusting 5 -0.0
2019-Dec-04 23:47 183 -0.0
2019-Dec-04 23:37 183 1 gusting 4 -0.0
2019-Dec-04 23:32 199 3 gusting 10 -0.0
2019-Dec-04 23:27 219 3 gusting 6 -0.0
2019-Dec-04 23:22 207 0 gusting 2 -0.0
2019-Dec-04 23:17 201 2 gusting 5 -0.0
2019-Dec-04 23:12 157 0 gusting 2 -0.0
2019-Dec-04 23:07 181 -0.0
2019-Dec-04 23:02 182 -0.0
2019-Dec-04 22:57 170 0 gusting 2 -0.6
2019-Dec-04 22:52 163 -0.6
2019-Dec-04 22:47 163 -0.6
2019-Dec-04 22:42 163 -0.6
2019-Dec-04 22:37 163 -0.6
2019-Dec-04 22:32 163 -0.6
2019-Dec-04 22:27 163 -0.6
2019-Dec-04 22:22 163 -0.6
2019-Dec-04 22:17 163 -0.0
2019-Dec-04 22:12 163 -0.0
2019-Dec-04 22:07 163 0.6
2019-Dec-04 22:02 163 0.6
2019-Dec-04 21:57 163 0.6
2019-Dec-04 21:37 171 0 gusting 2 1.1
2019-Dec-04 21:32 187 0 gusting 2 1.1
2019-Dec-04 21:27 180 0 gusting 2 1.1
2019-Dec-04 21:22 192 1.1
2019-Dec-04 21:17 183 0 gusting 2 1.1
2019-Dec-04 21:12 184 1 gusting 5 1.1
2019-Dec-04 21:07 177 1 gusting 2 1.1
2019-Dec-04 21:02 186 1 gusting 2 1.1
2019-Dec-04 20:57 184 1 gusting 4 1.1
2019-Dec-04 20:52 200 1 gusting 2 1.1
2019-Dec-04 20:47 178 1 gusting 4 1.1
2019-Dec-04 20:42 193 1 gusting 5 1.1
2019-Dec-04 20:37 180 0 gusting 2 1.1
2019-Dec-04 20:32 188 1 gusting 2 1.1
2019-Dec-04 20:27 208 0 gusting 5 1.1
2019-Dec-04 20:22 175 1 gusting 4 1.7
2019-Dec-04 20:17 195 1 gusting 5 1.7
2019-Dec-04 20:12 182 2 gusting 4 1.7
2019-Dec-04 20:07 172 1 gusting 2 1.7
2019-Dec-04 20:02 130 0 gusting 2 1.7
2019-Dec-04 19:57 178 0 gusting 2 1.7
2019-Dec-04 19:52 187 0 gusting 2 1.7
2019-Dec-04 19:47 188 1 gusting 6 1.7
2019-Dec-04 19:42 188 1 gusting 6 1.7
2019-Dec-04 19:37 193 1 gusting 6 1.7
2019-Dec-04 19:32 189 3 gusting 6 1.7
2019-Dec-04 19:27 202 1 gusting 4 1.7
2019-Dec-04 19:22 190 2 gusting 6 1.7
2019-Dec-04 19:17 204 4 gusting 6 2.2
2019-Dec-04 19:12 190 2 gusting 4 2.2
2019-Dec-04 19:07 193 2 gusting 6 2.2
2019-Dec-04 19:02 173 2 gusting 6 2.2
2019-Dec-04 18:57 188 0 gusting 2 2.2
2019-Dec-04 18:52 189 0 gusting 5 2.2
2019-Dec-04 18:47 208 0 gusting 5 2.2
2019-Dec-04 18:42 210 2 gusting 6 2.2
2019-Dec-04 18:37 166 1 gusting 5 2.2
2019-Dec-04 18:32 180 1 gusting 5 2.2
2019-Dec-04 18:27 181 3 gusting 6 2.2
2019-Dec-04 18:22 185 5 gusting 7 2.2
2019-Dec-04 18:17 173 1 gusting 6 2.2
2019-Dec-04 18:12 175 2 gusting 6 2.2
2019-Dec-04 18:07 204 0 gusting 2 2.2
2019-Dec-04 18:02 190 1 gusting 4 2.2
2019-Dec-04 17:57 180 2 gusting 6 2.2
2019-Dec-04 17:52 200 4 gusting 10 2.2
2019-Dec-04 17:47 179 3 gusting 7 2.2
2019-Dec-04 17:42 192 2 gusting 6 2.2
2019-Dec-04 17:37 188 4 gusting 8 2.2
2019-Dec-04 17:32 180 2 gusting 5 2.2
2019-Dec-04 17:27 194 4 gusting 7 2.2
2019-Dec-04 17:22 177 2 gusting 4 2.2
2019-Dec-04 17:17 207 1 gusting 7 2.2
2019-Dec-04 17:12 197 2 gusting 8 2.2
2019-Dec-04 17:07 207 1 gusting 8 2.2
2019-Dec-04 17:02 191 3 gusting 6 2.2
2019-Dec-04 16:57 206 3 gusting 8 2.2
2019-Dec-04 16:52 198 2 gusting 7 2.2
2019-Dec-04 16:47 199 2.2
2019-Dec-04 16:42 189 1 gusting 6 2.2
2019-Dec-04 16:37 214 1 gusting 10 1.7
2019-Dec-04 16:32 193 1 gusting 6 1.7
2019-Dec-04 16:27 189 4 gusting 8 1.7
2019-Dec-04 16:22 183 3 gusting 10 1.7
2019-Dec-04 16:17 231 2 gusting 10 1.7
2019-Dec-04 16:12 200 3 gusting 6 1.7
2019-Dec-04 16:07 205 2 gusting 5 1.7
2019-Dec-04 16:02 178 3 gusting 10 1.7
2019-Dec-04 15:57 186 0 gusting 6 1.7
2019-Dec-04 15:52 181 4 gusting 10 1.7
2019-Dec-04 15:47 203 1 gusting 8 1.7
2019-Dec-04 15:42 200 4 gusting 7 1.7
2019-Dec-04 15:37 189 0 gusting 4 1.1
2019-Dec-04 15:32 179 4 gusting 8 1.1
2019-Dec-04 15:27 182 4 gusting 7 1.1
2019-Dec-04 15:22 199 0 gusting 4 1.1
2019-Dec-04 15:17 206 2 gusting 4 1.1
2019-Dec-04 15:12 200 0 gusting 5 1.1
2019-Dec-04 15:07 198 1 gusting 8 0.6
2019-Dec-04 15:02 198 1 gusting 6 0.6
2019-Dec-04 14:57 184 1 gusting 4 0.6
2019-Dec-04 14:52 199 2 gusting 4 -0.0
2019-Dec-04 14:47 180 0 gusting 7 -0.0
2019-Dec-04 14:42 172 2 gusting 6 -0.6
2019-Dec-04 14:37 189 3 gusting 8 -0.6
2019-Dec-04 14:32 199 4 gusting 8 -0.6
2019-Dec-04 14:27 190 1 gusting 6 -0.6
2019-Dec-04 14:22 204 3 gusting 6 -0.6
2019-Dec-04 14:17 191 1 gusting 6 -0.6
2019-Dec-04 14:12 192 2 gusting 6 -0.6
2019-Dec-04 14:07 200 0 gusting 6 -0.6
2019-Dec-04 14:02 192 2 gusting 4 -1.1
2019-Dec-04 13:57 190 2 gusting 5 -1.1
2019-Dec-04 13:52 188 0 gusting 5 -1.1
2019-Dec-04 13:47 179 1 gusting 4 -1.1
2019-Dec-04 13:42 191 0 gusting 2 -1.7
2019-Dec-04 13:37 186 2 gusting 6 -1.7
2019-Dec-04 13:32 194 0 gusting 2 -1.7
2019-Dec-04 13:27 198 0 gusting 2 -2.2
2019-Dec-04 13:22 199 -2.2
2019-Dec-04 13:17 200 -2.2
2019-Dec-04 13:12 200 -2.2
2019-Dec-04 13:07 200 -2.2
2019-Dec-04 13:02 200 -2.8
2019-Dec-04 12:57 200 1 gusting 4 -2.8
2019-Dec-04 12:52 195 -2.8
2019-Dec-04 12:47 195 -2.8
2019-Dec-04 12:42 195 -2.8
2019-Dec-04 12:37 195 0 gusting 2 -2.8
2019-Dec-04 12:32 195 -2.8
2019-Dec-04 12:27 195 -2.8
2019-Dec-04 12:22 195 -2.8
2019-Dec-04 12:17 198 2 gusting 4 -2.8
2019-Dec-04 12:12 194 1 gusting 6 -2.8
2019-Dec-04 12:07 202 2 gusting 6 -2.8
2019-Dec-04 12:02 199 3 gusting 6 -2.8
2019-Dec-04 11:57 210 2 gusting 6 -2.8
2019-Dec-04 11:52 205 2 gusting 5 -2.8
2019-Dec-04 11:47 200 4 gusting 7 -2.8
2019-Dec-04 11:42 202 2 gusting 6 -2.8
2019-Dec-04 11:37 200 2 gusting 4 -3.3
2019-Dec-04 11:32 203 2 gusting 6 -3.3
2019-Dec-04 11:27 212 1 gusting 5 -3.3
2019-Dec-04 11:22 188 1 gusting 4 -3.3
2019-Dec-04 11:17 195 1 gusting 4 -3.3
2019-Dec-04 11:12 212 -3.3
2019-Dec-04 11:07 199 2 gusting 5 -3.3
2019-Dec-04 11:02 176 0 gusting 5 -3.3
2019-Dec-04 10:57 197 2 gusting 5 -3.3
2019-Dec-04 10:52 196 0 gusting 2 -3.3
2019-Dec-04 10:47 196 2 gusting 6 -3.3
2019-Dec-04 10:42 198 0 gusting 4 -3.3
2019-Dec-04 10:37 195 3 gusting 7 -3.3
2019-Dec-04 10:32 188 2 gusting 6 -3.3
2019-Dec-04 10:27 217 0 gusting 11 -3.3
2019-Dec-04 10:22 194 1 gusting 2 -3.3
2019-Dec-04 10:17 233 1 gusting 6 -3.3
2019-Dec-04 10:12 221 0 gusting 4 -3.3
2019-Dec-04 10:07 247 1 gusting 5 -3.3
2019-Dec-04 10:02 270 0 gusting 2 -3.3
2019-Dec-04 09:57 259 1 gusting 2 -3.3
2019-Dec-04 09:52 285 0 gusting 2 -3.3
2019-Dec-04 09:47 284 1 gusting 2 -3.3
2019-Dec-04 09:42 284 0 gusting 2 -3.3
2019-Dec-04 09:37 284 0 gusting 2 -3.3
2019-Dec-04 09:32 284 1 gusting 2 -3.3
2019-Dec-04 09:27 277 1 gusting 5 -3.3
2019-Dec-04 09:22 292 0 gusting 2 -3.3
2019-Dec-04 09:17 273 1 gusting 2 -3.3
2019-Dec-04 09:12 223 0 gusting 6 -3.3
2019-Dec-04 09:07 233 -3.3
2019-Dec-04 09:02 247 0 gusting 2 -3.3
2019-Dec-04 08:57 238 1 gusting 6 -3.3
2019-Dec-04 08:52 259 1 gusting 5 -3.9
2019-Dec-04 08:47 221 1 gusting 5 -3.9
2019-Dec-04 08:42 186 1 gusting 10 -3.9
2019-Dec-04 08:37 179 0 gusting 6 -3.9
2019-Dec-04 08:32 212 1 gusting 8 -3.9
2019-Dec-04 08:27 225 1 gusting 5 -3.9
2019-Dec-04 08:22 254 1 gusting 5 -3.9
2019-Dec-04 08:17 239 0 gusting 2 -3.9
2019-Dec-04 08:12 226 2 gusting 11 -3.9
2019-Dec-04 08:07 257 2 gusting 6 -3.9
2019-Dec-04 08:02 229 1 gusting 5 -3.9
2019-Dec-04 07:57 229 1 gusting 5 -3.9
2019-Dec-04 07:52 236 5 gusting 12 -3.9
2019-Dec-04 07:47 205 5 gusting 12 -3.9
2019-Dec-04 07:37 215 3 gusting 10 -3.9
2019-Dec-04 07:32 216 3 gusting 8 -3.9
2019-Dec-04 07:27 207 0 gusting 7 -3.9
2019-Dec-04 07:22 239 1 gusting 5 -3.9
2019-Dec-04 07:17 255 0 gusting 2 -3.9
2019-Dec-04 07:12 187 0 gusting 5 -3.9
2019-Dec-04 07:07 194 0 gusting 5 -3.9
2019-Dec-04 07:02 201 0 gusting 4 -3.9
2019-Dec-04 06:57 195 2 gusting 5 -3.9
2019-Dec-04 06:52 218 0 gusting 4 -3.9
2019-Dec-04 06:47 208 0 gusting 2 -3.9
2019-Dec-04 06:42 199 2 gusting 5 -3.9
2019-Dec-04 06:37 221 2 gusting 6 -3.9
2019-Dec-04 06:32 202 0 gusting 4 -3.9
2019-Dec-04 06:27 277 -3.9
2019-Dec-04 06:22 229 0 gusting 6 -3.9
2019-Dec-04 06:17 182 2 gusting 10 -3.9
2019-Dec-04 06:12 299 1 gusting 11 -3.9
2019-Dec-04 06:07 197 3 gusting 10 -3.9
2019-Dec-04 06:02 244 1 gusting 4 -3.9
2019-Dec-04 05:57 248 1 gusting 2 -3.9
2019-Dec-04 05:52 285 1 gusting 2 -3.9
2019-Dec-04 05:47 281 1 gusting 6 -3.9
2019-Dec-04 05:42 281 1 gusting 2 -3.9
2019-Dec-04 05:37 224 2 gusting 10 -3.9
2019-Dec-04 05:32 276 1 gusting 4 -3.9
2019-Dec-04 05:27 272 1 gusting 4 -3.9
2019-Dec-04 05:22 243 3 gusting 13 -3.9
2019-Dec-04 05:17 269 2 gusting 6 -3.9
2019-Dec-04 05:12 282 1 gusting 4 -3.9
2019-Dec-04 05:07 279 1 gusting 4 -3.9
2019-Dec-04 05:02 277 1 gusting 2 -3.9
2019-Dec-04 04:57 259 1 gusting 2 -3.9
2019-Dec-04 04:52 275 1 gusting 2 -3.9
2019-Dec-04 04:47 279 2 gusting 4 -3.9
2019-Dec-04 04:42 276 1 gusting 2 -3.9
2019-Dec-04 04:37 269 1 gusting 2 -3.9
2019-Dec-04 04:32 257 1 gusting 6 -3.9
2019-Dec-04 04:27 278 1 gusting 2 -3.3
2019-Dec-04 04:22 279 1 gusting 2 -3.3
2019-Dec-04 04:17 271 0 gusting 2 -3.3
2019-Dec-04 04:12 261 1 gusting 2 -3.3
2019-Dec-04 04:07 282 0 gusting 2 -3.3
2019-Dec-04 04:02 273 1 gusting 2 -3.3
2019-Dec-04 03:57 275 1 gusting 5 -3.3
2019-Dec-04 03:52 281 2 gusting 5 -3.3
2019-Dec-04 03:47 264 2 gusting 6 -3.3
2019-Dec-04 03:42 282 2 gusting 6 -3.3
2019-Dec-04 03:37 272 2 gusting 6 -3.3
2019-Dec-04 03:32 285 2 gusting 4 -3.3
2019-Dec-04 03:27 269 1 gusting 4 -3.3
2019-Dec-04 03:22 277 2 gusting 5 -3.3
2019-Dec-04 03:17 285 1 gusting 4 -3.3
2019-Dec-04 03:12 270 2 gusting 5 -3.3
2019-Dec-04 03:07 250 2 gusting 7 -3.3
2019-Dec-04 03:02 242 1 gusting 4 -3.3
2019-Dec-04 02:57 274 1 gusting 2 -2.8
2019-Dec-04 02:52 300 0 gusting 2 -2.8
2019-Dec-04 02:47 215 0 gusting 4 -2.8
2019-Dec-04 02:42 250 0 gusting 2 -2.8
2019-Dec-04 02:37 275 0 gusting 2 -2.8
2019-Dec-04 02:32 280 2 gusting 4 -2.8
2019-Dec-04 02:27 303 1 gusting 2 -2.8
2019-Dec-04 02:22 279 2 gusting 4 -2.8
2019-Dec-04 02:17 289 2 gusting 4 -2.8
2019-Dec-04 02:12 288 1 gusting 2 -2.8
2019-Dec-04 02:07 285 1 gusting 2 -2.8
2019-Dec-04 02:02 288 2 gusting 5 -2.8
2019-Dec-04 01:57 292 1 gusting 2 -2.8
2019-Dec-04 01:52 288 1 gusting 2 -2.8
2019-Dec-04 01:47 285 1 gusting 4 -2.8
2019-Dec-04 01:42 282 2 gusting 4 -2.8
2019-Dec-04 01:37 284 2 gusting 4 -2.8
2019-Dec-04 01:32 278 1 gusting 2 -2.8
2019-Dec-04 01:27 278 1 gusting 2 -2.8
2019-Dec-04 01:22 264 1 gusting 5 -2.8
2019-Dec-04 01:17 267 2 gusting 4 -2.8
2019-Dec-04 01:12 262 1 gusting 2 -2.8
2019-Dec-04 01:07 237 1 gusting 4 -2.8
2019-Dec-04 01:02 248 1 gusting 4 -2.8
2019-Dec-04 00:57 280 -2.8
2019-Dec-04 00:52 280 0 gusting 2 -2.8
2019-Dec-04 00:47 311 0 gusting 2 -2.2
2019-Dec-04 00:42 313 -2.2
2019-Dec-04 00:37 311 -2.2
2019-Dec-04 00:32 294 0 gusting 2 -2.2
2019-Dec-04 00:27 297 0 gusting 2 -2.2
2019-Dec-04 00:22 310 0 gusting 1 -2.2
2019-Dec-04 00:17 311 -2.2
2019-Dec-04 00:12 311 0 gusting 2 -2.2
2019-Dec-04 00:07 311 -2.2
2019-Dec-04 00:02 297 1 gusting 2 -2.2
2019-Dec-03 23:57 358 0 gusting 1 -2.2
2019-Dec-03 23:52 358 -2.2
2019-Dec-03 23:47 358 -2.2
2019-Dec-03 23:42 358 -2.2
2019-Dec-03 23:37 359 -2.2
2019-Dec-03 23:32 -2.2
2019-Dec-03 23:27 -2.2
2019-Dec-03 23:22 -2.2
2019-Dec-03 23:17 -2.2
2019-Dec-03 23:12 358 0 gusting 2 -2.2
2019-Dec-03 23:07 346 -2.2
2019-Dec-03 23:02 324 -2.2
2019-Dec-03 22:57 346 -2.2
2019-Dec-03 22:52 347 0 gusting 2 -2.2
2019-Dec-03 22:47 321 -2.2
2019-Dec-03 22:42 293 0 gusting 1 -2.2
2019-Dec-03 22:37 321 -2.2
2019-Dec-03 22:32 314 -2.2
2019-Dec-03 22:27 314 0 gusting 2 -2.2
2019-Dec-03 22:22 306 0 gusting 2 -1.7
2019-Dec-03 22:17 324 0 gusting 2 -1.7
2019-Dec-03 22:12 324 0 gusting 2 -1.7
2019-Dec-03 22:07 331 -1.7
2019-Dec-03 22:02 283 0 gusting 2 -1.7
2019-Dec-03 21:57 283 1 gusting 2 -1.7
2019-Dec-03 21:52 283 1 gusting 4 -1.7
2019-Dec-03 21:42 281 0 gusting 2 -1.7
2019-Dec-03 21:37 270 0 gusting 4 -1.7
2019-Dec-03 21:32 264 0 gusting 2 -1.1
2019-Dec-03 21:27 264 -1.1
2019-Dec-03 21:22 264 0 gusting 2 -1.1
2019-Dec-03 21:17 263 0 gusting 2 -1.1
2019-Dec-03 21:12 263 0 gusting 1 -1.1
2019-Dec-03 21:07 263 1 gusting 2 -0.6
2019-Dec-03 21:02 256 0 gusting 2 -0.6
2019-Dec-03 20:57 200 -0.6
2019-Dec-03 20:52 200 0 gusting 2 -0.6
2019-Dec-03 20:47 199 0 gusting 1 -0.6
2019-Dec-03 20:42 199 -0.6
2019-Dec-03 20:37 199 -0.6
2019-Dec-03 20:32 199 0 gusting 2 -0.6
2019-Dec-03 20:27 199 0 gusting 1 -0.6
2019-Dec-03 20:22 199 -0.6
2019-Dec-03 20:17 199 -1.1
2019-Dec-03 20:12 199 0 gusting 1 -1.1
2019-Dec-03 20:07 199 -1.1
2019-Dec-03 20:02 199 0 gusting 1 -1.1